Time;durP1;ratioP1;P1;durP2;ratioP2;P2;SDS_P1;SDS_P2;PMS_P1;PMS_P2;Temp;Humidity;BMP_temperature;BMP_pressure;BME280_temperature;BME280_humidity;BME280_pressure;Samples;Min_cycle;Max_cycle;Signal;HPM_P1;HPM_P2
2023/08/22 00:02:25;;;;;;;17.73;10.18;;;;;;;;;;5048764;28;20049;-64
2023/08/22 00:04:51;;;;;;;18.92;13.30;;;;;;;;;;5052899;28;20017;-64
2023/08/22 00:07:16;;;;;;;16.33;12.60;;;;;;;;;;5051147;28;20407;-64
2023/08/22 00:09:41;;;;;;;12.63;8.88;;;;;;;;;;5052453;28;20017;-64
2023/08/22 00:12:07;;;;;;;15.98;9.60;;;;;;;;;;5051348;28;20120;-64
2023/08/22 00:14:32;;;;;;;16.90;10.80;;;;;;;;;;5052280;28;20087;-64
2023/08/22 00:16:58;;;;;;;20.13;11.73;;;;;;;;;;5050472;28;20045;-64
2023/08/22 00:19:23;;;;;;;16.65;11.20;;;;;;;;;;5052262;28;20083;-64
2023/08/22 00:21:49;;;;;;;11.38;10.10;;;;;;;;;;5051049;28;20045;-63
2023/08/22 00:24:14;;;;;;;13.20;11.90;;;;;;;;;;5052484;28;20028;-64
2023/08/22 00:26:39;;;;;;;16.15;12.23;;;;;;;;;;5050880;28;20036;-63
2023/08/22 00:29:04;;;;;;;15.60;12.15;;;;;;;;;;5052230;28;20029;-64
2023/08/22 00:31:30;;;;;;;12.77;10.90;;;;;;;;;;5050103;28;20069;-64
2023/08/22 00:33:55;;;;;;;13.23;11.82;;;;;;;;;;5052445;28;20376;-64
2023/08/22 00:36:20;;;;;;;13.60;10.27;;;;;;;;;;5050595;28;20111;-64
2023/08/22 00:38:45;;;;;;;13.88;10.82;;;;;;;;;;5050856;28;20384;-64
2023/08/22 00:41:10;;;;;;;20.07;10.90;;;;;;;;;;5050524;28;20033;-64
2023/08/22 00:43:35;;;;;;;16.90;9.88;;;;;;;;;;5051933;28;20024;-64
2023/08/22 00:46:01;;;;;;;17.17;12.07;;;;;;;;;;5050750;28;20404;-64
2023/08/22 00:48:26;;;;;;;15.68;11.55;;;;;;;;;;5051476;28;20032;-64
2023/08/22 00:50:51;;;;;;;12.30;10.17;;;;;;;;;;5050471;28;20033;-64
2023/08/22 00:53:16;;;;;;;16.40;13.68;;;;;;;;;;5051792;28;20437;-64
2023/08/22 00:55:41;;;;;;;15.97;14.23;;;;;;;;;;5050042;28;20104;-62
2023/08/22 00:58:06;;;;;;;16.47;13.37;;;;;;;;;;5051642;28;20158;-63
2023/08/22 01:00:32;;;;;;;19.77;13.53;;;;;;;;;;5049850;28;20028;-63
2023/08/22 01:02:57;;;;;;;17.60;11.95;;;;;;;;;;5051496;28;20017;-64
2023/08/22 01:05:24;;;;;;;15.23;12.45;;;;;;;;;;5051669;28;20021;-65
2023/08/22 01:07:53;;;;;;;22.52;12.65;;;;;;;;;;5050410;28;20037;-65
2023/08/22 01:10:21;;;;;;;16.48;12.23;;;;;;;;;;5049682;28;20024;-65
2023/08/22 01:12:52;;;;;;;12.70;11.48;;;;;;;;;;5049895;28;20756;-64
2023/08/22 01:15:25;;;;;;;11.57;10.32;;;;;;;;;;5050550;28;20744;-64
2023/08/22 01:17:51;;;;;;;13.90;10.93;;;;;;;;;;5049513;28;20052;-64
2023/08/22 01:20:16;;;;;;;12.98;11.07;;;;;;;;;;5051115;28;20119;-65
2023/08/22 01:22:41;;;;;;;15.35;10.77;;;;;;;;;;5049812;28;20120;-65
2023/08/22 01:25:08;;;;;;;14.40;9.23;;;;;;;;;;5051267;28;20024;-64
2023/08/22 01:27:35;;;;;;;12.63;11.10;;;;;;;;;;5049747;28;20459;-63
2023/08/22 01:30:08;;;;;;;21.83;14.20;;;;;;;;;;5051334;28;20501;-63
2023/08/22 01:32:37;;;;;;;13.35;10.00;;;;;;;;;;5049115;28;20040;-63
2023/08/22 01:35:02;;;;;;;;;;;;;;;;;;5051925;28;20025;-63
2023/08/22 01:37:28;;;;;;;16.33;10.68;;;;;;;;;;5049347;28;19916;-62
2023/08/22 01:39:56;;;;;;;15.32;10.15;;;;;;;;;;5050753;28;20024;-62
2023/08/22 01:42:23;;;;;;;15.55;13.50;;;;;;;;;;5049481;28;20045;-62
2023/08/22 01:44:48;;;;;;;14.02;11.48;;;;;;;;;;5051152;28;20298;-63
2023/08/22 01:47:13;;;;;;;17.40;13.88;;;;;;;;;;5049015;28;20043;-62
2023/08/22 01:49:38;;;;;;;21.00;12.77;;;;;;;;;;5050763;28;20108;-63
2023/08/22 01:52:04;;;;;;;15.65;11.18;;;;;;;;;;5049362;28;20041;-63
2023/08/22 01:54:29;;;;;;;12.82;11.55;;;;;;;;;;5050174;28;20100;-62
2023/08/22 01:56:55;;;;;;;11.82;10.73;;;;;;;;;;5049239;28;20036;-63
2023/08/22 01:59:20;;;;;;;13.93;11.25;;;;;;;;;;5050684;28;20044;-63
2023/08/22 02:01:45;;;;;;;14.67;11.50;;;;;;;;;;5048930;28;20158;-63
2023/08/22 02:04:10;;;;;;;17.13;12.50;;;;;;;;;;5050803;28;20348;-63
2023/08/22 02:06:35;;;;;;;19.63;13.18;;;;;;;;;;5049168;28;20045;-66
2023/08/22 02:09:01;;;;;;;15.63;11.60;;;;;;;;;;5050090;28;20032;-62
2023/08/22 02:11:26;;;;;;;14.97;11.93;;;;;;;;;;5048981;28;20040;-63
2023/08/22 02:13:51;;;;;;;12.17;11.00;;;;;;;;;;5050299;28;20466;-63
2023/08/22 02:16:16;;;;;;;17.87;12.33;;;;;;;;;;5048459;28;20455;-63
2023/08/22 02:18:41;;;;;;;13.70;12.30;;;;;;;;;;5065741;28;20059;-62
2023/08/22 02:21:06;;;;;;;10.15;9.15;;;;;;;;;;5049180;28;20399;-63
2023/08/22 02:23:32;;;;;;;13.25;9.15;;;;;;;;;;5049838;28;20021;-63
2023/08/22 02:25:57;;;;;;;14.65;9.80;;;;;;;;;;5048464;28;20041;-63
2023/08/22 02:28:23;;;;;;;12.27;9.75;;;;;;;;;;5050105;28;20028;-63
2023/08/22 02:30:53;;;;;;;12.87;9.87;;;;;;;;;;5048509;28;20037;-61
2023/08/22 02:33:18;;;;;;;8.73;7.93;;;;;;;;;;5050186;28;20025;-62
2023/08/22 02:35:43;;;;;;;15.83;10.27;;;;;;;;;;5048968;28;20429;-62
2023/08/22 02:38:08;;;;;;;13.13;9.57;;;;;;;;;;5049894;28;20040;-62
2023/08/22 02:40:34;;;;;;;10.95;8.95;;;;;;;;;;5048566;28;20354;-61
2023/08/22 02:42:59;;;;;;;11.32;9.18;;;;;;;;;;5050169;28;20025;-64
2023/08/22 02:45:24;;;;;;;14.70;10.07;;;;;;;;;;5049720;28;20101;-63
2023/08/22 02:47:49;;;;;;;13.90;11.55;;;;;;;;;;5048744;28;20036;-63
2023/08/22 02:50:15;;;;;;;14.27;12.88;;;;;;;;;;5050277;28;20356;-63
2023/08/22 02:52:40;;;;;;;16.80;11.77;;;;;;;;;;5046190;28;20040;-63
2023/08/22 02:55:05;;;;;;;22.40;13.90;;;;;;;;;;5050173;28;20025;-63
2023/08/22 02:57:30;;;;;;;28.45;16.38;;;;;;;;;;5048221;28;20377;-63
2023/08/22 02:59:56;;;;;;;21.43;15.73;;;;;;;;;;5049579;28;20021;-63
2023/08/22 03:02:21;;;;;;;50.07;25.43;;;;;;;;;;5048376;28;20124;-63
2023/08/22 03:04:46;;;;;;;38.67;25.43;;;;;;;;;;5050112;28;20385;-63
2023/08/22 03:07:11;;;;;;;38.77;21.67;;;;;;;;;;5048310;28;20044;-63
2023/08/22 03:09:37;;;;;;;39.83;21.67;;;;;;;;;;5050054;28;20118;-63
2023/08/22 03:12:02;;;;;;;36.05;21.67;;;;;;;;;;5046591;28;20524;-65
2023/08/22 03:14:27;;;;;;;30.80;21.00;;;;;;;;;;5064753;28;20031;-63
2023/08/22 03:16:52;;;;;;;26.83;18.13;;;;;;;;;;5048569;28;20052;-63
2023/08/22 03:19:18;;;;;;;27.67;17.15;;;;;;;;;;5049253;28;20144;-62
2023/08/22 03:21:43;;;;;;;33.47;20.43;;;;;;;;;;5048342;28;20036;-62
2023/08/22 03:24:08;;;;;;;32.35;20.00;;;;;;;;;;5049687;28;20545;-63
2023/08/22 03:26:33;;;;;;;29.07;18.60;;;;;;;;;;5048183;28;20029;-63
2023/08/22 03:28:58;;;;;;;22.63;14.93;;;;;;;;;;5049508;28;20538;-63
2023/08/22 03:31:26;;;;;;;20.63;15.95;;;;;;;;;;5047952;28;20073;-64
2023/08/22 03:33:51;;;;;;;28.30;16.15;;;;;;;;;;5049521;28;20509;-64
2023/08/22 03:36:16;;;;;;;19.33;13.90;;;;;;;;;;5048026;28;20124;-64
2023/08/22 03:38:41;;;;;;;19.27;15.37;;;;;;;;;;5050722;28;20519;-65
2023/08/22 03:41:06;;;;;;;21.90;15.63;;;;;;;;;;5051839;28;20562;-65
2023/08/22 03:43:32;;;;;;;21.83;17.02;;;;;;;;;;5052984;28;20021;-65
2023/08/22 03:45:57;;;;;;;19.97;16.00;;;;;;;;;;5051482;28;20029;-68
2023/08/22 03:48:22;;;;;;;21.42;15.50;;;;;;;;;;5052789;28;20086;-65
2023/08/22 03:50:47;;;;;;;21.90;15.73;;;;;;;;;;5051787;28;20033;-65
2023/08/22 03:53:13;;;;;;;29.05;17.10;;;;;;;;;;5052769;28;20553;-65
2023/08/22 03:55:39;;;;;;;19.30;16.73;;;;;;;;;;5051243;28;20025;-64
2023/08/22 03:58:04;;;;;;;17.45;14.55;;;;;;;;;;5053040;28;20017;-65
2023/08/22 04:00:30;;;;;;;24.03;17.80;;;;;;;;;;5051062;28;20021;-64
2023/08/22 04:02:56;;;;;;;30.90;21.10;;;;;;;;;;5052984;28;20415;-66
2023/08/22 04:05:22;;;;;;;34.65;23.27;;;;;;;;;;5052998;28;20498;-65
2023/08/22 04:07:47;;;;;;;38.08;26.63;;;;;;;;;;5049697;28;20063;-66
2023/08/22 04:10:12;;;;;;;49.40;27.57;;;;;;;;;;5052393;28;20096;-66
2023/08/22 04:12:37;;;;;;;65.70;34.58;;;;;;;;;;5050922;28;20565;-64
2023/08/22 04:15:02;;;;;;;41.73;27.07;;;;;;;;;;5052362;28;20329;-64
2023/08/22 04:17:28;;;;;;;47.28;29.52;;;;;;;;;;5050957;28;20037;-64
2023/08/22 04:19:53;;;;;;;44.85;26.38;;;;;;;;;;5052731;28;20037;-63
2023/08/22 04:22:18;;;;;;;43.47;25.30;;;;;;;;;;5050582;28;20500;-63
2023/08/22 04:24:43;;;;;;;35.30;23.10;;;;;;;;;;5052350;28;20435;-63
2023/08/22 04:27:08;;;;;;;30.90;23.00;;;;;;;;;;5051464;28;20047;-63
2023/08/22 04:29:33;;;;;;;27.40;17.90;;;;;;;;;;5051932;28;20052;-63
2023/08/22 04:32:01;;;;;;;30.30;18.02;;;;;;;;;;5049709;28;20452;-63
2023/08/22 04:34:26;;;;;;;31.98;19.45;;;;;;;;;;5052402;28;20021;-65
2023/08/22 04:36:51;;;;;;;17.73;10.27;;;;;;;;;;5042610;28;20496;-63
2023/08/22 04:39:16;;;;;;;28.45;15.50;;;;;;;;;;5052152;28;20028;-65
2023/08/22 04:41:42;;;;;;;17.67;15.40;;;;;;;;;;5051272;28;20040;-65
2023/08/22 04:44:08;;;;;;;15.20;11.27;;;;;;;;;;5052289;28;20432;-65
2023/08/22 04:46:33;;;;;;;11.87;9.97;;;;;;;;;;5050884;28;20039;-65
2023/08/22 04:48:58;;;;;;;9.00;8.10;;;;;;;;;;5052032;28;20055;-67
2023/08/22 04:51:23;;;;;;;11.32;10.13;;;;;;;;;;5049518;28;20507;-68
2023/08/22 04:53:50;;;;;;;11.03;9.57;;;;;;;;;;5050601;28;20021;-66
2023/08/22 04:56:15;;;;;;;9.35;8.55;;;;;;;;;;5050869;28;20060;-66
2023/08/22 04:58:41;;;;;;;10.40;9.30;;;;;;;;;;5050779;28;20464;-66
2023/08/22 05:01:06;;;;;;;11.90;9.05;;;;;;;;;;5050526;28;20043;-59
2023/08/22 05:03:31;;;;;;;14.35;9.07;;;;;;;;;;5051878;28;20043;-59
2023/08/22 05:05:56;;;;;;;9.33;7.03;;;;;;;;;;5041205;28;20040;-59
2023/08/22 05:08:21;;;;;;;9.13;8.10;;;;;;;;;;5031781;28;20420;-59
2023/08/22 05:10:47;;;;;;;10.10;9.20;;;;;;;;;;5030945;28;20090;-58
2023/08/22 05:13:12;;;;;;;11.23;10.13;;;;;;;;;;5031787;28;20385;-59
2023/08/22 05:15:37;;;;;;;15.07;11.57;;;;;;;;;;5035496;28;21043;-59
2023/08/22 05:18:02;;;;;;;13.65;12.25;;;;;;;;;;5051915;28;20020;-64
2023/08/22 05:20:28;;;;;;;12.13;9.82;;;;;;;;;;5047812;28;20155;-58
2023/08/22 05:22:53;;;;;;;11.23;10.17;;;;;;;;;;5051334;28;20017;-58
2023/08/22 05:25:18;;;;;;;18.65;14.60;;;;;;;;;;5051552;28;20972;-58
2023/08/22 05:27:43;;;;;;;40.20;25.58;;;;;;;;;;5047549;28;20120;-58
2023/08/22 05:30:09;;;;;;;36.53;23.13;;;;;;;;;;5051899;28;20025;-59
2023/08/22 05:32:34;;;;;;;49.55;27.33;;;;;;;;;;5049557;28;20037;-59
2023/08/22 05:34:59;;;;;;;48.35;28.80;;;;;;;;;;5051360;28;20432;-62
2023/08/22 05:37:25;;;;;;;42.00;27.43;;;;;;;;;;5049591;28;20029;-59
2023/08/22 05:39:50;;;;;;;31.05;24.20;;;;;;;;;;5051867;28;20033;-60
2023/08/22 05:42:15;;;;;;;31.25;22.52;;;;;;;;;;5049690;28;20455;-59
2023/08/22 05:44:40;;;;;;;38.60;23.40;;;;;;;;;;5050907;28;20027;-59
2023/08/22 05:47:07;;;;;;;33.47;24.00;;;;;;;;;;5049977;28;20060;-59
2023/08/22 05:49:32;;;;;;;37.80;22.27;;;;;;;;;;5050624;28;20103;-59
2023/08/22 05:52:02;;;;;;;32.93;21.90;;;;;;;;;;5048764;28;20429;-59
2023/08/22 05:54:27;;;;;;;35.13;25.75;;;;;;;;;;5050919;28;20013;-59
2023/08/22 05:56:53;;;;;;;28.17;22.20;;;;;;;;;;5049468;28;20357;-60
2023/08/22 05:59:18;;;;;;;21.00;15.37;;;;;;;;;;5050297;28;20027;-59
2023/08/22 06:01:43;;;;;;;20.23;18.10;;;;;;;;;;5047842;28;20427;-59
2023/08/22 06:04:08;;;;;;;22.63;15.85;;;;;;;;;;5050735;28;20878;-59
2023/08/22 06:06:33;;;;;;;24.27;18.90;;;;;;;;;;5048720;28;20033;-59
2023/08/22 06:08:59;;;;;;;26.27;17.45;;;;;;;;;;5050808;28;20025;-59
2023/08/22 06:11:24;;;;;;;28.05;20.80;;;;;;;;;;5048832;28;20127;-60
2023/08/22 06:13:50;;;;;;;21.83;18.20;;;;;;;;;;5050306;28;20096;-60
2023/08/22 06:16:15;;;;;;;27.80;20.30;;;;;;;;;;5049042;28;20048;-60
2023/08/22 06:18:40;;;;;;;26.10;21.85;;;;;;;;;;5050241;28;20049;-59
2023/08/22 06:21:05;;;;;;;27.17;19.83;;;;;;;;;;5048812;28;20119;-59
2023/08/22 06:23:30;;;;;;;32.25;20.92;;;;;;;;;;5049869;28;20032;-59
2023/08/22 06:25:55;;;;;;;25.88;21.52;;;;;;;;;;5049064;28;20114;-59
2023/08/22 06:28:21;;;;;;;21.02;18.83;;;;;;;;;;5045422;28;20484;-60
2023/08/22 06:30:46;;;;;;;24.45;21.92;;;;;;;;;;5048277;28;20037;-60
2023/08/22 06:33:11;;;;;;;22.73;20.38;;;;;;;;;;5050133;28;20020;-59
2023/08/22 06:35:36;;;;;;;21.37;18.97;;;;;;;;;;5048084;28;20432;-60
2023/08/22 06:38:01;;;;;;;23.40;18.53;;;;;;;;;;5050393;28;20021;-60
2023/08/22 06:40:26;;;;;;;19.13;16.83;;;;;;;;;;5049109;28;20394;-57
2023/08/22 06:42:52;;;;;;;24.45;19.67;;;;;;;;;;5049313;28;20974;-60
2023/08/22 06:45:17;;;;;;;27.50;19.13;;;;;;;;;;5046767;28;20028;-59
2023/08/22 06:47:43;;;;;;;20.00;17.52;;;;;;;;;;5048586;28;20033;-60
2023/08/22 06:50:08;;;;;;;20.88;18.08;;;;;;;;;;5049550;28;20029;-60
2023/08/22 06:52:33;;;;;;;20.40;17.60;;;;;;;;;;5047995;28;20516;-66
2023/08/22 06:54:58;;;;;;;21.37;17.30;;;;;;;;;;5048446;28;20997;-59
2023/08/22 06:57:23;;;;;;;18.20;16.47;;;;;;;;;;5047670;28;20041;-59
2023/08/22 06:59:49;;;;;;;22.93;14.67;;;;;;;;;;5050074;28;20492;-61
2023/08/22 07:02:14;;;;;;;18.83;14.43;;;;;;;;;;5048358;28;20460;-62
2023/08/22 07:04:39;;;;;;;18.73;13.93;;;;;;;;;;5049377;28;20418;-65
2023/08/22 07:07:04;;;;;;;15.35;12.95;;;;;;;;;;5048030;28;20045;-67
2023/08/22 07:09:29;;;;;;;12.85;11.45;;;;;;;;;;5049553;28;20115;-61
2023/08/22 07:11:54;;;;;;;15.07;11.55;;;;;;;;;;5044234;28;20041;-61
2023/08/22 07:14:20;;;;;;;15.98;12.38;;;;;;;;;;5033518;28;20018;-60
2023/08/22 07:16:45;;;;;;;13.27;11.87;;;;;;;;;;5031914;28;20094;-60
2023/08/22 07:19:10;;;;;;;13.77;11.33;;;;;;;;;;5033433;28;20053;-60
2023/08/22 07:21:35;;;;;;;13.43;12.00;;;;;;;;;;5035212;28;20591;-60
2023/08/22 07:24:02;;;;;;;14.63;12.10;;;;;;;;;;5053561;28;20442;-61
2023/08/22 07:26:28;;;;;;;16.60;11.77;;;;;;;;;;5051701;28;20048;-60
2023/08/22 07:28:53;;;;;;;18.00;10.33;;;;;;;;;;5053531;28;20024;-61
2023/08/22 07:31:18;;;;;;;15.25;10.07;;;;;;;;;;5051864;28;20458;-61
2023/08/22 07:33:43;;;;;;;7.97;7.10;;;;;;;;;;5053233;28;20116;-61
2023/08/22 07:36:18;;;;;;;12.73;9.10;;;;;;;;;;5052107;28;20041;-61
2023/08/22 07:38:43;;;;;;;10.20;7.60;;;;;;;;;;5035609;28;20545;-61
2023/08/22 07:41:10;;;;;;;12.30;6.30;;;;;;;;;;5052131;28;20052;-61
2023/08/22 07:43:35;;;;;;;14.55;7.43;;;;;;;;;;5053396;28;20021;-61
2023/08/22 07:46:00;;;;;;;6.00;5.40;;;;;;;;;;5051261;28;20789;-61
2023/08/22 07:48:25;;;;;;;7.65;5.18;;;;;;;;;;5052635;28;20052;-61
2023/08/22 07:50:50;;;;;;;11.30;6.07;;;;;;;;;;5050557;28;20063;-61
2023/08/22 07:53:16;;;;;;;9.63;5.55;;;;;;;;;;5052978;28;20124;-61
2023/08/22 07:55:41;;;;;;;11.85;6.10;;;;;;;;;;5051286;28;20032;-62
2023/08/22 07:58:06;;;;;;;9.73;5.63;;;;;;;;;;5053322;28;20468;-62
2023/08/22 08:00:31;;;;;;;9.77;5.17;;;;;;;;;;5051480;28;21124;-61
2023/08/22 08:02:56;;;;;;;8.50;4.97;;;;;;;;;;5052562;28;20013;-62
2023/08/22 08:05:22;;;;;;;10.30;5.00;;;;;;;;;;5052766;28;20131;-68
2023/08/22 08:07:47;;;;;;;7.78;5.25;;;;;;;;;;5051447;28;20044;-61
2023/08/22 08:10:12;;;;;;;8.18;5.05;;;;;;;;;;5052685;28;20028;-73
2023/08/22 08:12:37;;;;;;;8.88;4.78;;;;;;;;;;5050880;28;20065;-62
2023/08/22 08:15:03;;;;;;;7.30;4.90;;;;;;;;;;5051426;28;20480;-62
2023/08/22 08:17:28;;;;;;;11.43;4.43;;;;;;;;;;5050811;28;21010;-62
2023/08/22 08:19:53;;;;;;;8.63;4.45;;;;;;;;;;5052436;28;20175;-62
2023/08/22 08:22:18;;;;;;;5.60;4.93;;;;;;;;;;5051089;28;20068;-62
2023/08/22 08:24:44;;;;;;;7.88;4.13;;;;;;;;;;5052019;28;20021;-62
2023/08/22 08:27:09;;;;;;;6.43;3.93;;;;;;;;;;5050661;28;20412;-62
2023/08/22 08:29:34;;;;;;;5.87;4.00;;;;;;;;;;5052342;28;20021;-62
2023/08/22 08:32:00;;;;;;;6.43;3.20;;;;;;;;;;5051129;28;20059;-62
2023/08/22 08:34:25;;;;;;;11.25;4.10;;;;;;;;;;5049610;28;20455;-62
2023/08/22 08:36:50;;;;;;;7.63;3.30;;;;;;;;;;5050814;28;20106;-62
2023/08/22 08:39:17;;;;;;;12.43;3.30;;;;;;;;;;5045272;28;20021;-62
2023/08/22 08:41:47;;;;;;;5.38;2.95;;;;;;;;;;5031202;28;20042;-66
2023/08/22 08:44:14;;;;;;;6.70;2.78;;;;;;;;;;5051310;28;20029;-62
2023/08/22 08:46:41;;;;;;;7.50;3.63;;;;;;;;;;5050589;28;20114;-62
2023/08/22 08:49:06;;;;;;;11.23;3.60;;;;;;;;;;5051396;28;20017;-62
2023/08/22 08:51:32;;;;;;;8.15;3.97;;;;;;;;;;5048678;28;20040;-62
2023/08/22 08:53:57;;;;;;;9.02;3.55;;;;;;;;;;5050662;28;20032;-62
2023/08/22 08:56:22;;;;;;;4.88;3.20;;;;;;;;;;5048336;28;20049;-62
2023/08/22 08:58:47;;;;;;;11.93;4.50;;;;;;;;;;5050349;28;20021;-62
2023/08/22 09:01:14;;;;;;;4.73;4.13;;;;;;;;;;5048673;28;20041;-62
2023/08/22 09:03:39;;;;;;;8.23;4.22;;;;;;;;;;5049735;28;20025;-62
2023/08/22 09:06:04;;;;;;;10.27;3.93;;;;;;;;;;5050221;28;20029;-62
2023/08/22 09:08:29;;;;;;;6.50;4.97;;;;;;;;;;5051566;28;20434;-61
2023/08/22 09:10:54;;;;;;;5.53;3.27;;;;;;;;;;5050262;28;20056;-61
2023/08/22 09:13:29;;;;;;;14.03;4.40;;;;;;;;;;5051639;28;20447;-62
2023/08/22 09:15:59;;;;;;;4.80;2.85;;;;;;;;;;5050180;28;20928;-61
2023/08/22 09:18:24;;;;;;;8.07;4.05;;;;;;;;;;5051239;28;20040;-62
2023/08/22 09:20:49;;;;;;;7.23;4.17;;;;;;;;;;5049866;28;20040;-62
2023/08/22 09:23:27;;;;;;;9.27;3.57;;;;;;;;;;5051500;28;20056;-61
2023/08/22 09:25:53;;;;;;;6.50;2.35;;;;;;;;;;5048311;28;20523;-62
2023/08/22 09:28:18;;;;;;;6.88;2.92;;;;;;;;;;5051000;28;20025;-61
2023/08/22 09:30:50;;;;;;;4.50;2.80;;;;;;;;;;5049939;28;20025;-61
2023/08/22 09:33:16;;;;;;;12.90;5.07;;;;;;;;;;5049895;28;20020;-62
2023/08/22 09:35:41;;;;;;;6.93;3.25;;;;;;;;;;5047923;28;20380;-61
2023/08/22 09:38:09;;;;;;;4.43;3.28;;;;;;;;;;5047292;28;20021;-61
2023/08/22 09:40:35;;;;;;;9.38;4.47;;;;;;;;;;5035436;28;20017;-61
2023/08/22 09:43:01;;;;;;;8.20;4.53;;;;;;;;;;5030771;28;20021;-61
2023/08/22 09:45:28;;;;;;;7.10;3.60;;;;;;;;;;5029367;28;20040;-61
2023/08/22 09:47:56;;;;;;;5.95;3.85;;;;;;;;;;5027599;28;20080;-61
2023/08/22 09:50:21;;;;;;;;;;;;;;;;;;5031052;28;20503;-61
2023/08/22 09:52:47;;;;;;;10.43;4.20;;;;;;;;;;5041799;28;19909;-61
2023/08/22 09:55:13;;;;;;;15.77;5.68;;;;;;;;;;5050117;28;20040;-61
2023/08/22 09:57:38;;;;;;;15.32;6.50;;;;;;;;;;5048517;28;20030;-61
2023/08/22 10:00:05;;;;;;;11.85;6.15;;;;;;;;;;5049200;28;20033;-62
2023/08/22 10:02:32;;;;;;;14.10;6.18;;;;;;;;;;5047301;28;20160;-61
2023/08/22 10:04:57;;;;;;;12.80;6.18;;;;;;;;;;5049455;28;20145;-62
2023/08/22 10:07:23;;;;;;;9.57;7.30;;;;;;;;;;5048302;28;20499;-61
2023/08/22 10:09:48;;;;;;;9.65;7.30;;;;;;;;;;5049954;28;20029;-61
2023/08/22 10:12:16;;;;;;;27.40;7.73;;;;;;;;;;5048148;28;20041;-61
2023/08/22 10:14:43;;;;;;;17.48;8.07;;;;;;;;;;5050028;28;20447;-61
2023/08/22 10:17:13;;;;;;;18.50;8.98;;;;;;;;;;5048081;28;20041;-61
2023/08/22 10:19:38;;;;;;;10.38;8.02;;;;;;;;;;5049311;28;20103;-61
2023/08/22 10:22:07;;;;;;;12.30;7.75;;;;;;;;;;5048806;28;20057;-61
2023/08/22 10:24:33;;;;;;;10.40;8.00;;;;;;;;;;5039224;28;20018;-61
2023/08/22 10:27:02;;;;;;;10.43;7.75;;;;;;;;;;5028865;28;20045;-61
2023/08/22 10:29:30;;;;;;;14.07;7.97;;;;;;;;;;5029786;28;20380;-61
2023/08/22 10:31:55;;;;;;;;;;;;;;;;;;5043617;28;20036;-61
2023/08/22 10:34:20;;;;;;;12.88;7.32;;;;;;;;;;5049536;28;20062;-61
2023/08/22 10:36:56;;;;;;;19.87;9.03;;;;;;;;;;5048421;28;20512;-63
2023/08/22 10:39:34;;;;;;;12.63;8.32;;;;;;;;;;5044071;28;20087;-66
2023/08/22 10:42:00;;;;;;;15.88;8.40;;;;;;;;;;5043309;28;20045;-62
2023/08/22 10:44:30;;;;;;;12.10;9.32;;;;;;;;;;5049266;28;20392;-62
2023/08/22 10:47:02;;;;;;;14.80;8.57;;;;;;;;;;5049737;28;20127;-62
2023/08/22 10:49:28;;;;;;;13.88;7.85;;;;;;;;;;5053539;28;20070;-63
2023/08/22 10:52:06;;;;;;;17.83;8.90;;;;;;;;;;5052377;28;20041;-62
2023/08/22 10:54:32;;;;;;;15.63;7.55;;;;;;;;;;5053343;28;20128;-64
2023/08/22 10:57:16;;;;;;;14.25;9.68;;;;;;;;;;5051912;28;20106;-62
2023/08/22 10:59:59;;;;;;;14.40;7.18;;;;;;;;;;5053159;28;20028;-62
2023/08/22 11:02:34;;;;;;;11.18;7.13;;;;;;;;;;5051646;28;20052;-62
2023/08/22 11:05:00;;;;;;;10.00;5.38;;;;;;;;;;5053478;28;20104;-62
2023/08/22 11:07:26;;;;;;;7.38;5.95;;;;;;;;;;5051728;28;20036;-62
2023/08/22 11:09:53;;;;;;;11.55;5.82;;;;;;;;;;5052875;28;20029;-62
2023/08/22 11:12:19;;;;;;;8.57;6.50;;;;;;;;;;5051506;28;20064;-62
2023/08/22 11:14:48;;;;;;;10.05;6.55;;;;;;;;;;5053483;28;20122;-63
2023/08/22 11:17:22;;;;;;;8.18;6.45;;;;;;;;;;5051817;28;20049;-62
2023/08/22 11:19:48;;;;;;;15.23;6.90;;;;;;;;;;5053278;28;20088;-62
2023/08/22 11:22:13;;;;;;;11.15;4.50;;;;;;;;;;5051379;28;20067;-62
2023/08/22 11:24:42;;;;;;;8.07;4.40;;;;;;;;;;5052199;28;20511;-63
2023/08/22 11:27:07;;;;;;;8.13;5.70;;;;;;;;;;5050873;28;20036;-60
2023/08/22 11:29:59;;;;;;;13.57;6.65;;;;;;;;;;5052343;28;20020;-61
2023/08/22 11:32:34;;;;;;;14.75;6.78;;;;;;;;;;5047914;28;20052;-60
2023/08/22 11:35:04;;;;;;;6.50;5.03;;;;;;;;;;5047086;28;20033;-63
2023/08/22 11:37:33;;;;;;;10.35;5.47;;;;;;;;;;5045859;28;20527;-61
2023/08/22 11:39:58;;;;;;;9.35;5.20;;;;;;;;;;5052542;28;20447;-61
2023/08/22 11:42:24;;;;;;;9.25;5.72;;;;;;;;;;5050790;28;20133;-62
2023/08/22 11:45:04;;;;;;;11.90;6.20;;;;;;;;;;5052865;28;20055;-65
2023/08/22 11:47:42;;;;;;;6.05;4.72;;;;;;;;;;5051142;28;20040;-62
2023/08/22 11:50:12;;;;;;;11.90;5.43;;;;;;;;;;5052966;28;20017;-62
2023/08/22 11:52:40;;;;;;;14.55;6.38;;;;;;;;;;5050652;28;20052;-61
2023/08/22 11:55:06;;;;;;;17.17;6.13;;;;;;;;;;5052973;28;20025;-61
2023/08/22 11:57:32;;;;;;;13.88;6.30;;;;;;;;;;5050679;28;20044;-61
2023/08/22 12:00:06;;;;;;;7.47;5.57;;;;;;;;;;5051923;28;20021;-62
2023/08/22 12:02:31;;;;;;;10.90;6.32;;;;;;;;;;5050616;28;20103;-62
2023/08/22 12:04:56;;;;;;;25.55;5.50;;;;;;;;;;5044425;28;20041;-61
2023/08/22 12:07:24;;;;;;;13.30;5.55;;;;;;;;;;5035551;28;20040;-61
2023/08/22 12:10:03;;;;;;;7.55;4.10;;;;;;;;;;5052465;28;20519;-62
2023/08/22 12:12:29;;;;;;;10.57;5.05;;;;;;;;;;5050220;28;20067;-61
2023/08/22 12:14:54;;;;;;;9.27;2.97;;;;;;;;;;5051953;28;20017;-62
2023/08/22 12:17:19;;;;;;;6.25;4.10;;;;;;;;;;5050230;28;20048;-62
2023/08/22 12:19:44;;;;;;;8.57;4.17;;;;;;;;;;5052236;28;20515;-61
2023/08/22 12:22:10;;;;;;;3.67;2.53;;;;;;;;;;5048943;28;20542;-61
2023/08/22 12:24:35;;;;;;;5.30;3.40;;;;;;;;;;5051945;28;20443;-62
2023/08/22 12:27:00;;;;;;;5.27;2.43;;;;;;;;;;5050683;28;20207;-62
2023/08/22 12:29:25;;;;;;;10.90;3.83;;;;;;;;;;5051606;28;20828;-62
2023/08/22 12:31:51;;;;;;;11.07;5.93;;;;;;;;;;5050786;28;20028;-63
2023/08/22 12:34:16;;;;;;;8.73;3.33;;;;;;;;;;5051664;28;20031;-61
2023/08/22 12:36:41;;;;;;;6.80;3.27;;;;;;;;;;5050035;28;20513;-62
2023/08/22 12:39:10;;;;;;;5.37;2.83;;;;;;;;;;5052295;28;20031;-62
2023/08/22 12:41:35;;;;;;;5.80;2.97;;;;;;;;;;5050436;28;20468;-62
2023/08/22 12:44:00;;;;;;;4.07;3.07;;;;;;;;;;5052012;28;20017;-62
2023/08/22 12:46:25;;;;;;;12.60;4.10;;;;;;;;;;5050279;28;20400;-62
2023/08/22 12:48:51;;;;;;;8.77;5.38;;;;;;;;;;5051532;28;20021;-62
2023/08/22 12:51:16;;;;;;;5.00;2.67;;;;;;;;;;5050432;28;20029;-62
2023/08/22 12:53:41;;;;;;;3.97;1.60;;;;;;;;;;5051659;28;20376;-62
2023/08/22 12:56:06;;;;;;;3.25;2.03;;;;;;;;;;5050380;28;20041;-62
2023/08/22 12:58:32;;;;;;;6.57;2.60;;;;;;;;;;5051495;28;20017;-62
2023/08/22 13:00:58;;;;;;;8.15;2.47;;;;;;;;;;5049659;28;20090;-62
2023/08/22 13:03:23;;;;;;;4.70;1.83;;;;;;;;;;5051305;28;20418;-62
2023/08/22 13:05:48;;;;;;;3.90;2.53;;;;;;;;;;5050369;28;20020;-62
2023/08/22 13:08:13;;;;;;;5.18;2.38;;;;;;;;;;5051284;28;20515;-62
2023/08/22 13:10:38;;;;;;;5.20;2.10;;;;;;;;;;5046409;28;20039;-62
2023/08/22 13:13:03;;;;;;;6.73;2.83;;;;;;;;;;5051055;28;20440;-62
2023/08/22 13:15:30;;;;;;;5.55;2.13;;;;;;;;;;5050687;28;20028;-62
2023/08/22 13:17:55;;;;;;;5.95;1.65;;;;;;;;;;5049650;28;20047;-62
2023/08/22 13:20:21;;;;;;;4.60;1.65;;;;;;;;;;5049070;28;20052;-62
2023/08/22 13:22:47;;;;;;;5.32;1.65;;;;;;;;;;5030579;28;20489;-62
2023/08/22 13:25:12;;;;;;;3.30;1.77;;;;;;;;;;5030815;28;20029;-62
2023/08/22 13:27:39;;;;;;;8.27;2.38;;;;;;;;;;5029380;28;20034;-62
2023/08/22 13:30:05;;;;;;;6.23;1.23;;;;;;;;;;5030868;28;20021;-63
2023/08/22 13:32:30;;;;;;;4.88;1.42;;;;;;;;;;5029254;28;20559;-62
2023/08/22 13:34:55;;;;;;;7.78;1.30;;;;;;;;;;5030944;28;20017;-62
2023/08/22 13:37:21;;;;;;;9.25;2.05;;;;;;;;;;5027402;28;20068;-62
2023/08/22 13:39:46;;;;;;;9.30;1.48;;;;;;;;;;5029868;28;20029;-62
2023/08/22 13:42:12;;;;;;;4.23;1.80;;;;;;;;;;5028008;28;20061;-62
2023/08/22 13:44:37;;;;;;;1.40;1.00;;;;;;;;;;5029351;28;20510;-62
2023/08/22 13:47:03;;;;;;;2.63;1.75;;;;;;;;;;5028963;28;20044;-62
2023/08/22 13:49:28;;;;;;;14.68;2.45;;;;;;;;;;5029875;28;20017;-62
2023/08/22 13:51:53;;;;;;;16.57;2.73;;;;;;;;;;5027222;28;20124;-62
2023/08/22 13:54:21;;;;;;;9.52;1.70;;;;;;;;;;5030148;28;20436;-62
2023/08/22 13:56:46;;;;;;;3.38;1.17;;;;;;;;;;5043564;28;20049;-62
2023/08/22 13:59:12;;;;;;;6.63;1.45;;;;;;;;;;5035472;28;20033;-62
2023/08/22 14:01:37;;;;;;;2.17;1.58;;;;;;;;;;5019901;28;20038;-62
2023/08/22 14:04:03;;;;;;;4.50;1.38;;;;;;;;;;5024253;28;20096;-62
2023/08/22 14:06:28;;;;;;;1.98;0.95;;;;;;;;;;5028480;28;20046;-62
2023/08/22 14:08:53;;;;;;;6.17;1.33;;;;;;;;;;5030045;28;20057;-62
2023/08/22 14:11:18;;;;;;;4.77;1.40;;;;;;;;;;5029120;28;20507;-62
2023/08/22 14:13:44;;;;;;;4.88;1.10;;;;;;;;;;5029254;28;20029;-62
2023/08/22 14:16:09;;;;;;;2.20;1.30;;;;;;;;;;5029015;28;20041;-62
2023/08/22 14:18:35;;;;;;;5.18;1.38;;;;;;;;;;5028887;28;20051;-62
2023/08/22 14:21:00;;;;;;;2.10;0.90;;;;;;;;;;5026022;28;20381;-62
2023/08/22 14:23:25;;;;;;;16.87;2.53;;;;;;;;;;5044183;28;20021;-62